createdAt,value
2023-01-20T00:01:25.435Z,-1.57
2023-01-20T00:03:52.977Z,-1.61
2023-01-20T00:06:19.739Z,-1.48
2023-01-20T00:08:50.380Z,-1.46
2023-01-20T00:11:16.742Z,-1.51
2023-01-20T00:13:43.146Z,-1.56
2023-01-20T00:16:10.589Z,-1.49
2023-01-20T00:18:37.868Z,-1.61
2023-01-20T00:21:04.853Z,-1.60
2023-01-20T00:23:31.630Z,-1.82
2023-01-20T00:25:58.025Z,-1.82
2023-01-20T00:28:24.449Z,-1.93
2023-01-20T00:30:50.895Z,-1.95
2023-01-20T00:33:17.250Z,-1.91
2023-01-20T00:35:43.591Z,-2.09
2023-01-20T00:38:10.082Z,-2.03
2023-01-20T00:40:36.424Z,-2.11
2023-01-20T00:43:02.780Z,-2.09
2023-01-20T00:45:29.264Z,-2.07
2023-01-20T00:47:55.607Z,-2.19
2023-01-20T00:50:22.059Z,-2.13
2023-01-20T00:52:48.445Z,-2.27
2023-01-20T00:55:15.060Z,-2.26
2023-01-20T00:57:41.726Z,-2.23
2023-01-20T01:00:08.623Z,-2.37
2023-01-20T01:02:38.892Z,-2.28
2023-01-20T01:05:05.739Z,-2.26
2023-01-20T01:07:32.162Z,-2.27
2023-01-20T01:09:58.537Z,-2.43
2023-01-20T01:12:24.909Z,-2.43
2023-01-20T01:14:51.305Z,-2.42
2023-01-20T01:17:17.744Z,-2.53
2023-01-20T01:19:44.072Z,-2.68
2023-01-20T01:22:10.410Z,-2.71
2023-01-20T01:24:36.768Z,-2.56
2023-01-20T01:27:04.453Z,-2.72
2023-01-20T01:29:30.799Z,-2.67
2023-01-20T01:31:57.188Z,-2.66
2023-01-20T01:34:23.662Z,-2.71
2023-01-20T01:36:50.051Z,-2.82
2023-01-20T01:39:16.396Z,-2.69
2023-01-20T01:41:42.748Z,-2.84
2023-01-20T01:44:13.466Z,-2.79
2023-01-20T01:46:40.999Z,-2.58
2023-01-20T01:49:17.930Z,-2.74
2023-01-20T01:52:02.032Z,-2.67
2023-01-20T01:54:33.112Z,-2.86
2023-01-20T01:57:00.108Z,-2.97
2023-01-20T01:59:26.618Z,-2.89
2023-01-20T02:01:53.583Z,-3.08
2023-01-20T02:04:24.782Z,-2.93
2023-01-20T02:06:53.423Z,-2.84
2023-01-20T02:09:20.294Z,-3.08
2023-01-20T02:11:53.026Z,-2.98
2023-01-20T02:14:22.324Z,-3.13
2023-01-20T02:17:22.888Z,-2.94
2023-01-20T02:20:02.783Z,-2.99
2023-01-20T02:22:36.489Z,-2.96
2023-01-20T02:25:28.122Z,-2.99
2023-01-20T02:28:12.561Z,-2.98
2023-01-20T02:31:06.891Z,-2.89
2023-01-20T02:33:44.137Z,-2.90
2023-01-20T02:36:26.595Z,-2.79
2023-01-20T02:39:00.830Z,-2.70
2023-01-20T02:41:45.775Z,-2.49
2023-01-20T02:44:31.103Z,-2.55
2023-01-20T02:47:15.120Z,-2.58
2023-01-20T02:50:03.335Z,-2.52
2023-01-20T02:52:33.075Z,-2.72
2023-01-20T02:55:04.221Z,-2.89
2023-01-20T02:57:54.160Z,-2.93
2023-01-20T03:00:24.977Z,-3.02
2023-01-20T03:02:53.084Z,-2.66
2023-01-20T03:05:24.266Z,-2.90
2023-01-20T03:07:52.219Z,-3.01
2023-01-20T03:10:20.268Z,-2.99
2023-01-20T03:12:59.178Z,-3.06
2023-01-20T03:15:34.841Z,-3.13
2023-01-20T03:18:01.235Z,-3.17
2023-01-20T03:20:27.655Z,-3.16
2023-01-20T03:22:54.096Z,-3.24
2023-01-20T03:25:20.865Z,-3.24
2023-01-20T03:27:47.385Z,-3.26
2023-01-20T03:30:15.230Z,-3.27
2023-01-20T03:32:43.218Z,-3.24
2023-01-20T03:35:09.906Z,-3.19
2023-01-20T03:37:36.388Z,-2.96
2023-01-20T03:40:02.890Z,-3.13
2023-01-20T03:42:38.850Z,-3.07
2023-01-20T03:45:15.137Z,-2.93
2023-01-20T03:48:07.395Z,-2.78
2023-01-20T03:50:45.619Z,-2.82
2023-01-20T03:53:41.848Z,-2.94
2023-01-20T03:56:14.819Z,-2.79
2023-01-20T03:58:43.712Z,-2.70
2023-01-20T04:01:18.419Z,-2.54
2023-01-20T04:03:48.227Z,-2.74
2023-01-20T04:06:15.192Z,-2.76
2023-01-20T04:08:47.324Z,-2.83
2023-01-20T04:11:13.775Z,-2.78
2023-01-20T04:13:40.201Z,-2.69
2023-01-20T04:16:12.069Z,-2.80
2023-01-20T04:18:41.508Z,-2.75
2023-01-20T04:21:12.939Z,-2.74
2023-01-20T04:23:45.886Z,-2.82
2023-01-20T04:26:12.223Z,-2.75
2023-01-20T04:28:38.859Z,-2.65
2023-01-20T04:31:05.476Z,-2.49
2023-01-20T04:33:31.959Z,-2.78
2023-01-20T04:35:58.316Z,-2.78
2023-01-20T04:38:24.671Z,-2.58
2023-01-20T04:40:51.826Z,-2.66
2023-01-20T04:43:18.453Z,-2.66
2023-01-20T04:45:44.859Z,-2.68
2023-01-20T04:48:11.448Z,-2.77
2023-01-20T04:50:39.544Z,-2.73
2023-01-20T04:53:06.699Z,-2.76
2023-01-20T04:55:33.867Z,-2.83
2023-01-20T04:58:00.225Z,-2.75
2023-01-20T05:00:26.580Z,-2.77
2023-01-20T05:02:53.007Z,-2.58
2023-01-20T05:05:19.502Z,-2.51
2023-01-20T05:07:45.933Z,-2.54
2023-01-20T05:10:13.242Z,-2.67
2023-01-20T05:12:41.192Z,-2.57
2023-01-20T05:15:08.069Z,-2.60
2023-01-20T05:17:34.523Z,-2.43
2023-01-20T05:20:00.883Z,-2.41
2023-01-20T05:22:28.054Z,-2.57
2023-01-20T05:24:54.627Z,-2.38
2023-01-20T05:27:21.017Z,-2.44
2023-01-20T05:29:47.412Z,-2.34
2023-01-20T05:32:13.800Z,-2.32
2023-01-20T05:34:40.177Z,-2.31
2023-01-20T05:37:06.581Z,-2.39
2023-01-20T05:39:33.117Z,-2.32
2023-01-20T05:42:00.952Z,-2.24
2023-01-20T05:44:27.343Z,-2.27
2023-01-20T05:46:53.763Z,-2.29
2023-01-20T05:49:20.138Z,-2.37
2023-01-20T05:51:46.544Z,-2.24
2023-01-20T05:54:12.891Z,-2.32
2023-01-20T05:56:39.257Z,-2.36
2023-01-20T05:59:06.246Z,-2.38
2023-01-20T06:01:32.626Z,-2.34
2023-01-20T06:03:59.101Z,-2.36
2023-01-20T06:06:25.482Z,-2.19
2023-01-20T06:08:52.954Z,-2.19
2023-01-20T06:11:19.545Z,-2.29
2023-01-20T06:13:49.057Z,-2.12
2023-01-20T06:16:17.047Z,-2.06
2023-01-20T06:21:38.663Z,-2.06
2023-01-20T06:24:05.528Z,-2.05
2023-01-20T06:26:31.891Z,-2.11
2023-01-20T06:29:00.372Z,-2.04
2023-01-20T06:31:28.529Z,-2.06
2023-01-20T06:33:56.147Z,-2.10
2023-01-20T06:36:23.365Z,-2.10
2023-01-20T06:38:50.494Z,-2.03
2023-01-20T06:41:18.336Z,-2.00
2023-01-20T06:43:44.752Z,-2.06
2023-01-20T06:46:13.449Z,-2.10
2023-01-20T06:48:40.744Z,-2.06
2023-01-20T06:51:10.310Z,-2.02
2023-01-20T06:53:36.715Z,-2.08
2023-01-20T06:56:03.529Z,-2.01
2023-01-20T06:58:31.527Z,-2.07
2023-01-20T07:01:03.359Z,-2.00
2023-01-20T07:03:29.762Z,-2.03
2023-01-20T07:05:59.609Z,-2.06
2023-01-20T07:08:26.048Z,-1.80
2023-01-20T07:10:52.413Z,-1.26
2023-01-20T07:13:18.918Z,-1.61
2023-01-20T07:15:45.341Z,-1.42
2023-01-20T07:18:12.238Z,-1.12
2023-01-20T07:20:39.517Z,-1.20
2023-01-20T07:23:05.948Z,-1.40
2023-01-20T07:25:32.405Z,-1.48
2023-01-20T07:27:58.962Z,-1.72
2023-01-20T07:30:25.780Z,-1.64
2023-01-20T07:32:52.198Z,-1.78
2023-01-20T07:35:19.064Z,-1.32
2023-01-20T07:37:45.391Z,-1.60
2023-01-20T07:40:12.321Z,-1.40
2023-01-20T07:42:38.910Z,-1.31
2023-01-20T07:45:05.978Z,-1.02
2023-01-20T07:47:32.349Z,-1.11
2023-01-20T07:49:58.740Z,-1.04
2023-01-20T07:52:25.139Z,-1.30
2023-01-20T07:54:51.544Z,-1.08
2023-01-20T07:57:17.866Z,-1.25
2023-01-20T07:59:44.252Z,-1.11
2023-01-20T08:02:10.620Z,-1.43
2023-01-20T08:04:37.149Z,-0.87
2023-01-20T08:07:03.709Z,-0.72
2023-01-20T08:09:30.064Z,-0.92
2023-01-20T08:11:56.413Z,-1.37
2023-01-20T08:14:22.769Z,-0.99
2023-01-20T08:16:49.369Z,-0.97
2023-01-20T08:19:15.782Z,-0.95
2023-01-20T08:21:42.180Z,-1.15
2023-01-20T08:24:10.527Z,-1.16
2023-01-20T08:26:36.851Z,-1.37
2023-01-20T08:29:05.312Z,-1.40
2023-01-20T08:31:31.812Z,-1.24
2023-01-20T08:33:58.364Z,-1.31
2023-01-20T08:36:27.914Z,-1.36
2023-01-20T08:38:55.778Z,-1.43
2023-01-20T08:41:31.742Z,-1.48
2023-01-20T08:43:59.772Z,-1.47
2023-01-20T08:46:26.417Z,-1.61
2023-01-20T08:48:52.887Z,-1.20
2023-01-20T08:51:21.554Z,-1.50
2023-01-20T08:53:48.335Z,-1.28
2023-01-20T08:56:15.185Z,-1.47
2023-01-20T08:58:41.855Z,-1.24
2023-01-20T09:01:10.439Z,-1.12
2023-01-20T09:03:36.983Z,-1.57
2023-01-20T09:06:04.333Z,-1.47
2023-01-20T09:08:30.820Z,-1.63
2023-01-20T09:11:12.465Z,-1.75
2023-01-20T09:13:38.952Z,-1.54
2023-01-20T09:16:05.649Z,-1.45
2023-01-20T09:18:33.781Z,-1.47
2023-01-20T09:21:01.943Z,-1.26
2023-01-20T09:23:28.842Z,-1.13
2023-01-20T09:25:55.339Z,-1.21
2023-01-20T09:28:21.934Z,-1.18
2023-01-20T09:30:48.347Z,-1.50
2023-01-20T09:33:14.818Z,-1.63
2023-01-20T09:35:41.225Z,-1.18
2023-01-20T09:38:26.156Z,-1.35
2023-01-20T09:41:33.122Z,-1.61
2023-01-20T09:44:25.561Z,-1.61
2023-01-20T09:47:19.308Z,-1.47
2023-01-20T09:50:10.346Z,-1.61
2023-01-20T09:52:55.819Z,-1.44
2023-01-20T09:55:29.733Z,-1.46
2023-01-20T09:58:07.732Z,-1.20
2023-01-20T10:00:35.362Z,-1.18
2023-01-20T10:03:12.394Z,-0.88
2023-01-20T10:05:40.346Z,-0.80
2023-01-20T10:08:12.920Z,-0.75
2023-01-20T10:10:54.152Z,-0.82
2023-01-20T10:13:40.704Z,-0.84
2023-01-20T10:16:12.210Z,-0.77
2023-01-20T10:18:52.006Z,-0.74
2023-01-20T10:21:25.234Z,-0.03
2023-01-20T10:24:07.180Z,-0.08
2023-01-20T10:26:54.697Z,0.53
2023-01-20T10:29:27.498Z,0.03
2023-01-20T10:31:59.399Z,-0.31
2023-01-20T10:34:29.561Z,0.06
2023-01-20T10:37:04.460Z,-0.19
2023-01-20T10:39:37.819Z,-0.13
2023-01-20T10:42:08.635Z,-0.17
2023-01-20T10:44:35.616Z,-0.22
2023-01-20T10:47:31.158Z,-0.07
2023-01-20T10:50:16.582Z,-0.09
2023-01-20T10:53:03.958Z,0.12
2023-01-20T10:55:52.075Z,0.12
2023-01-20T10:58:25.538Z,0.09
2023-01-20T11:00:51.988Z,0.25
2023-01-20T11:03:20.170Z,-0.14
2023-01-20T11:05:50.014Z,0.16
2023-01-20T11:08:18.772Z,-0.03
2023-01-20T11:10:47.019Z,0.13
2023-01-20T11:13:13.350Z,0.47
2023-01-20T11:15:47.678Z,0.79
2023-01-20T11:18:14.097Z,0.71
2023-01-20T11:20:53.679Z,0.02
2023-01-20T11:23:30.252Z,-0.07
2023-01-20T11:25:57.620Z,-0.13
2023-01-20T11:28:24.947Z,-0.02
2023-01-20T11:30:55.640Z,-0.05
2023-01-20T11:33:28.057Z,-0.19
2023-01-20T11:36:17.107Z,-0.13
2023-01-20T11:38:45.596Z,-0.27
2023-01-20T11:41:23.825Z,-0.23
2023-01-20T11:43:52.525Z,-0.08
2023-01-20T11:46:23.941Z,-0.11
2023-01-20T11:48:50.837Z,0.06
2023-01-20T11:51:22.687Z,0.14
2023-01-20T11:53:49.167Z,0.39
2023-01-20T11:56:21.742Z,0.44
2023-01-20T11:58:50.544Z,0.22
2023-01-20T12:01:28.198Z,0.31
2023-01-20T12:04:05.610Z,0.26
2023-01-20T12:06:46.771Z,0.40
2023-01-20T12:09:15.853Z,0.53
2023-01-20T12:12:19.921Z,0.75
2023-01-20T12:15:31.359Z,0.55
2023-01-20T12:18:17.080Z,0.77
2023-01-20T12:20:56.134Z,0.84
2023-01-20T12:23:48.642Z,0.92
2023-01-20T12:26:18.219Z,1.20
2023-01-20T12:28:56.437Z,1.36
2023-01-20T12:31:24.287Z,1.16
2023-01-20T12:34:04.191Z,1.30
2023-01-20T12:36:50.658Z,1.13
2023-01-20T12:39:26.144Z,1.08
2023-01-20T12:42:10.851Z,1.06
2023-01-20T12:44:49.794Z,1.10
2023-01-20T12:47:28.375Z,1.10
2023-01-20T12:50:16.024Z,1.23
2023-01-20T12:52:48.895Z,1.39
2023-01-20T12:55:48.897Z,1.30
2023-01-20T12:58:25.367Z,1.34
2023-01-20T13:01:13.136Z,1.08
2023-01-20T13:03:52.931Z,1.02
2023-01-20T13:06:45.765Z,1.17
2023-01-20T13:09:41.392Z,1.09
2023-01-20T13:12:29.044Z,1.17
2023-01-20T13:14:59.301Z,1.15
2023-01-20T13:17:35.614Z,1.29
2023-01-20T13:20:04.876Z,1.49
2023-01-20T13:22:31.416Z,1.49
2023-01-20T13:24:58.935Z,1.54
2023-01-20T13:27:30.585Z,1.57
2023-01-20T13:29:58.696Z,1.51
2023-01-20T13:32:42.994Z,1.57
2023-01-20T13:35:25.877Z,1.45
2023-01-20T13:37:53.581Z,1.46
2023-01-20T13:40:38.346Z,1.37
2023-01-20T13:43:27.482Z,1.35
2023-01-20T13:46:02.987Z,1.39
2023-01-20T13:48:31.126Z,1.30
2023-01-20T13:51:15.711Z,1.28
2023-01-20T13:53:43.621Z,1.23
2023-01-20T13:56:26.829Z,1.17
2023-01-20T13:58:54.230Z,1.04
2023-01-20T14:01:20.726Z,1.16
2023-01-20T14:04:02.812Z,1.11
2023-01-20T14:06:29.621Z,1.30
2023-01-20T14:08:55.948Z,1.31
2023-01-20T14:11:26.685Z,1.33
2023-01-20T14:14:01.883Z,1.22
2023-01-20T14:16:29.729Z,1.29
2023-01-20T14:19:01.247Z,1.20
2023-01-20T14:21:30.407Z,1.21
2023-01-20T14:23:56.845Z,1.15
2023-01-20T14:26:24.534Z,1.26
2023-01-20T14:28:55.406Z,1.31
2023-01-20T14:31:45.516Z,1.28
2023-01-20T14:34:28.066Z,1.29
2023-01-20T14:36:59.097Z,1.34
2023-01-20T14:39:27.492Z,1.30
2023-01-20T14:41:58.961Z,1.38
2023-01-20T14:44:30.253Z,1.45
2023-01-20T14:46:58.824Z,1.37
2023-01-20T14:49:33.717Z,1.36
2023-01-20T14:52:01.006Z,1.31
2023-01-20T14:54:44.214Z,1.33
2023-01-20T14:57:22.861Z,1.41
2023-01-20T15:00:20.774Z,1.42
2023-01-20T15:03:01.335Z,1.35
2023-01-20T15:05:34.162Z,1.24
2023-01-20T15:08:24.358Z,1.36
2023-01-20T15:11:10.510Z,1.36
2023-01-20T15:13:38.631Z,1.38
2023-01-20T15:16:27.614Z,1.33
2023-01-20T15:19:20.056Z,1.37
2023-01-20T15:21:53.251Z,1.28
2023-01-20T15:24:22.217Z,1.30
2023-01-20T15:26:50.605Z,1.38
2023-01-20T15:29:33.892Z,1.34
2023-01-20T15:32:11.687Z,1.30
2023-01-20T15:34:38.110Z,1.29
2023-01-20T15:37:09.640Z,1.38
2023-01-20T15:39:36.071Z,1.43
2023-01-20T15:42:02.690Z,1.38
2023-01-20T15:44:29.069Z,1.33
2023-01-20T15:46:57.477Z,1.36
2023-01-20T15:49:25.089Z,1.35
2023-01-20T15:51:51.475Z,1.40
2023-01-20T15:54:17.952Z,1.31
2023-01-20T15:56:44.331Z,1.25
2023-01-20T15:59:15.426Z,1.27
2023-01-20T16:01:41.896Z,1.37
2023-01-20T16:04:09.465Z,1.34
2023-01-20T16:06:37.311Z,1.25
2023-01-20T16:09:37.037Z,1.24
2023-01-20T16:12:03.914Z,1.23
2023-01-20T16:14:30.264Z,1.20
2023-01-20T16:16:56.683Z,1.18
2023-01-20T16:19:23.079Z,1.15
2023-01-20T16:21:49.915Z,1.07
2023-01-20T16:24:16.341Z,1.17
2023-01-20T16:26:45.942Z,1.15
2023-01-20T16:29:12.514Z,1.11
2023-01-20T16:31:38.965Z,1.18
2023-01-20T16:34:08.148Z,1.14
2023-01-20T16:36:34.627Z,1.15
2023-01-20T16:39:03.502Z,1.17
2023-01-20T16:41:32.776Z,1.06
2023-01-20T16:43:59.200Z,0.97
2023-01-20T16:46:31.503Z,0.92
2023-01-20T16:49:01.955Z,0.87
2023-01-20T16:51:29.650Z,0.85
2023-01-20T16:53:56.808Z,0.85
2023-01-20T16:56:29.669Z,0.79
2023-01-20T16:59:01.415Z,0.74
2023-01-20T17:01:28.927Z,0.76
2023-01-20T17:04:01.028Z,0.78
2023-01-20T17:06:29.740Z,0.81
2023-01-20T17:08:58.590Z,0.76
2023-01-20T17:11:25.701Z,0.88
2023-01-20T17:13:52.682Z,0.90
2023-01-20T17:16:19.825Z,0.81
2023-01-20T17:18:50.827Z,0.76
2023-01-20T17:21:20.485Z,0.66
2023-01-20T17:23:57.707Z,0.59
2023-01-20T17:26:24.504Z,0.51
2023-01-20T17:28:55.734Z,0.50
2023-01-20T17:31:22.778Z,0.33
2023-01-20T17:33:49.913Z,0.30
2023-01-20T17:36:16.784Z,0.22
2023-01-20T17:38:43.740Z,0.19
2023-01-20T17:41:10.907Z,-0.01
2023-01-20T17:43:43.038Z,-0.01
2023-01-20T17:46:15.767Z,0.03
2023-01-20T17:48:42.932Z,-0.06
2023-01-20T17:51:14.573Z,0.05
2023-01-20T17:53:41.447Z,0.09
2023-01-20T17:56:12.779Z,0.06
2023-01-20T17:58:40.746Z,-0.05
2023-01-20T18:01:15.796Z,-0.02
2023-01-20T18:03:43.396Z,-0.02
2023-01-20T18:06:15.003Z,-0.05
2023-01-20T18:08:41.831Z,-0.01
2023-01-20T18:11:10.946Z,0.05
2023-01-20T18:13:37.633Z,0.11
2023-01-20T18:16:05.187Z,0.13
2023-01-20T18:18:32.017Z,0.00
2023-01-20T18:21:13.306Z,0.00
2023-01-20T18:23:40.057Z,-0.07
2023-01-20T18:26:07.235Z,-0.08
2023-01-20T18:28:34.780Z,-0.11
2023-01-20T18:31:09.494Z,-0.05
2023-01-20T18:33:44.088Z,-0.08
2023-01-20T18:36:14.825Z,-0.06
2023-01-20T18:38:43.271Z,-0.05
2023-01-20T18:41:13.740Z,-0.07
2023-01-20T18:43:40.649Z,-0.07
2023-01-20T18:46:07.676Z,-0.10
2023-01-20T18:48:37.857Z,-0.13
2023-01-20T18:51:04.294Z,-0.12
2023-01-20T18:53:31.377Z,-0.04
2023-01-20T18:56:07.089Z,0.01
2023-01-20T18:58:34.323Z,-0.03
2023-01-20T19:01:12.093Z,-0.01
2023-01-20T19:03:39.235Z,-0.10
2023-01-20T19:06:11.120Z,-0.16
2023-01-20T19:08:38.863Z,-0.13
2023-01-20T19:11:08.814Z,-0.08
2023-01-20T19:13:35.666Z,-0.05
2023-01-20T19:16:02.449Z,-0.09
2023-01-20T19:18:28.926Z,-0.15
2023-01-20T19:20:55.321Z,-0.16
2023-01-20T19:23:22.148Z,-0.05
2023-01-20T19:25:49.362Z,0.03
2023-01-20T19:28:15.864Z,-0.05
2023-01-20T19:30:42.292Z,-0.07
2023-01-20T19:33:12.023Z,-0.04
2023-01-20T19:35:41.225Z,-0.06
2023-01-20T19:38:08.415Z,-0.06
2023-01-20T19:40:35.003Z,-0.05
2023-01-20T19:43:01.563Z,-0.02
2023-01-20T19:45:40.354Z,0.03
2023-01-20T19:48:11.419Z,-0.04
2023-01-20T19:50:37.832Z,-0.07
2023-01-20T19:53:04.193Z,-0.10
2023-01-20T19:55:30.562Z,-0.10
2023-01-20T19:57:56.888Z,-0.08
2023-01-20T20:00:23.395Z,-0.08
2023-01-20T20:02:53.483Z,-0.06
2023-01-20T20:05:19.891Z,-0.05
2023-01-20T20:07:46.268Z,-0.05
2023-01-20T20:10:12.652Z,0.01
2023-01-20T20:12:39.625Z,0.03
2023-01-20T20:15:06.442Z,-0.05
2023-01-20T20:17:33.048Z,0.00
2023-01-20T20:19:59.420Z,-0.06
2023-01-20T20:22:25.769Z,-0.08
2023-01-20T20:24:52.186Z,-0.12
2023-01-20T20:27:18.625Z,-0.08
2023-01-20T20:29:45.070Z,-0.10
2023-01-20T20:32:11.642Z,-0.06
2023-01-20T20:34:38.103Z,-0.03
2023-01-20T20:37:04.507Z,-0.13
2023-01-20T20:39:31.180Z,-0.11
2023-01-20T20:41:57.581Z,-0.10
2023-01-20T20:44:24.004Z,-0.12
2023-01-20T20:46:50.427Z,-0.11
2023-01-20T20:49:17.177Z,-0.09
2023-01-20T20:51:43.777Z,-0.13
2023-01-20T20:54:12.898Z,-0.12
2023-01-20T20:56:39.295Z,-0.08
2023-01-20T20:59:05.622Z,-0.10
2023-01-20T21:01:33.805Z,-0.11
2023-01-20T21:04:01.072Z,-0.11
2023-01-20T21:06:28.038Z,-0.13
2023-01-20T21:08:54.510Z,-0.18
2023-01-20T21:11:21.041Z,-0.16
2023-01-20T21:13:49.149Z,-0.16
2023-01-20T21:16:16.625Z,-0.17
2023-01-20T21:18:43.295Z,-0.15
2023-01-20T21:21:13.911Z,-0.16
2023-01-20T21:23:40.922Z,-0.12
2023-01-20T21:26:10.373Z,-0.12
2023-01-20T21:28:36.764Z,-0.14
2023-01-20T21:31:07.592Z,-0.12
2023-01-20T21:33:33.960Z,-0.05
2023-01-20T21:36:03.738Z,-0.11
2023-01-20T21:38:31.310Z,-0.10
2023-01-20T21:41:00.242Z,-0.10
2023-01-20T21:43:50.119Z,-0.16
2023-01-20T21:46:16.560Z,-0.16
2023-01-20T21:49:01.672Z,-0.15
2023-01-20T21:51:48.686Z,-0.16
2023-01-20T21:54:15.152Z,-0.15
2023-01-20T21:56:41.706Z,-0.15
2023-01-20T21:59:08.082Z,-0.10
2023-01-20T22:01:34.690Z,-0.15
2023-01-20T22:04:01.462Z,-0.11
2023-01-20T22:06:27.859Z,-0.11
2023-01-20T22:08:54.211Z,-0.09
2023-01-20T22:11:20.626Z,-0.10
2023-01-20T22:13:46.959Z,-0.12
2023-01-20T22:16:13.365Z,-0.10
2023-01-20T22:18:39.679Z,-0.09
2023-01-20T22:21:07.266Z,-0.11
2023-01-20T22:23:34.787Z,-0.10
2023-01-20T22:26:01.836Z,-0.12
2023-01-20T22:28:38.218Z,-0.08
2023-01-20T22:31:07.080Z,-0.10
2023-01-20T22:33:33.950Z,-0.08
2023-01-20T22:36:00.337Z,-0.07
2023-01-20T22:38:27.244Z,-0.08
2023-01-20T22:40:53.611Z,-0.05
2023-01-20T22:43:20.249Z,-0.06
2023-01-20T22:45:48.241Z,-0.05
2023-01-20T22:48:14.820Z,-0.02
2023-01-20T22:50:41.154Z,-0.02
2023-01-20T22:53:07.503Z,-0.01
2023-01-20T22:55:33.807Z,-0.01
2023-01-20T22:58:00.201Z,-0.03
2023-01-20T23:00:26.566Z,-0.01
2023-01-20T23:02:52.940Z,0.01
2023-01-20T23:05:19.267Z,-0.01
2023-01-20T23:07:45.628Z,0.03
2023-01-20T23:10:32.222Z,0.03
2023-01-20T23:12:58.649Z,0.00
2023-01-20T23:15:25.144Z,0.01
2023-01-20T23:17:51.483Z,-0.01
2023-01-20T23:20:18.296Z,0.00
2023-01-20T23:22:44.902Z,0.01
2023-01-20T23:25:11.248Z,-0.04
2023-01-20T23:27:37.704Z,0.00
2023-01-20T23:30:05.610Z,-0.03
2023-01-20T23:32:31.943Z,-0.01
2023-01-20T23:34:58.307Z,-0.01
2023-01-20T23:37:24.683Z,-0.01
2023-01-20T23:39:52.828Z,0.01
2023-01-20T23:42:19.200Z,-0.01
2023-01-20T23:44:45.585Z,-0.01
2023-01-20T23:47:12.377Z,-0.02
2023-01-20T23:49:38.768Z,-0.05
2023-01-20T23:52:05.762Z,0.00
2023-01-20T23:54:32.284Z,0.00
2023-01-20T23:56:58.951Z,-0.04
2023-01-20T23:59:25.329Z,-0.03
